createdAt,value
2023-12-12T00:02:00.429Z,66.44
2023-12-12T00:04:28.112Z,66.25
2023-12-12T00:06:55.493Z,66.28
2023-12-12T00:09:22.724Z,66.72
2023-12-12T00:11:50.664Z,67.01
2023-12-12T00:14:17.976Z,67.30
2023-12-12T00:16:45.290Z,67.52
2023-12-12T00:19:12.631Z,67.45
2023-12-12T00:21:39.906Z,67.71
2023-12-12T00:24:07.984Z,67.51
2023-12-12T00:26:35.224Z,67.57
2023-12-12T00:29:02.641Z,67.50
2023-12-12T00:31:30.010Z,67.38
2023-12-12T00:33:57.685Z,67.57
2023-12-12T00:36:24.973Z,67.52
2023-12-12T00:38:52.411Z,67.02
2023-12-12T00:41:19.669Z,67.36
2023-12-12T00:43:47.074Z,67.07
2023-12-12T00:46:14.570Z,67.11
2023-12-12T00:48:42.167Z,66.88
2023-12-12T00:51:10.425Z,66.72
2023-12-12T00:53:37.900Z,66.33
2023-12-12T00:56:05.547Z,66.60
2023-12-12T00:58:33.060Z,66.91
2023-12-12T01:01:00.488Z,67.07
2023-12-12T01:03:28.698Z,67.70
2023-12-12T01:05:56.010Z,67.89
2023-12-12T01:08:23.420Z,68.02
2023-12-12T01:10:50.656Z,68.24
2023-12-12T01:13:18.084Z,68.46
2023-12-12T01:15:45.300Z,68.61
2023-12-12T01:18:12.645Z,68.80
2023-12-12T01:20:40.017Z,68.91
2023-12-12T01:23:07.354Z,69.35
2023-12-12T01:25:34.990Z,69.18
2023-12-12T01:28:02.306Z,69.45
2023-12-12T01:30:29.913Z,69.57
2023-12-12T01:32:57.285Z,69.46
2023-12-12T01:35:24.571Z,69.66
2023-12-12T01:37:52.019Z,69.19
2023-12-12T01:40:19.427Z,68.55
2023-12-12T01:42:46.727Z,68.28
2023-12-12T01:45:15.989Z,68.27
2023-12-12T01:47:44.707Z,67.46
2023-12-12T01:50:12.413Z,67.38
2023-12-12T01:52:39.956Z,67.61
2023-12-12T01:55:07.873Z,68.10
2023-12-12T01:57:35.314Z,68.49
2023-12-12T02:00:03.674Z,68.85
2023-12-12T02:02:39.878Z,68.48
2023-12-12T02:05:07.414Z,68.90
2023-12-12T02:07:37.155Z,68.64
2023-12-12T02:10:04.913Z,68.10
2023-12-12T02:12:33.498Z,67.62
2023-12-12T02:15:00.883Z,67.18
2023-12-12T02:17:28.596Z,67.05
2023-12-12T02:19:56.016Z,67.10
2023-12-12T02:22:23.424Z,67.40
2023-12-12T02:24:50.857Z,67.27
2023-12-12T02:27:18.197Z,67.08
2023-12-12T02:29:45.729Z,66.65
2023-12-12T02:32:13.049Z,66.81
2023-12-12T02:34:40.469Z,67.23
2023-12-12T02:37:07.724Z,67.50
2023-12-12T02:39:35.098Z,67.76
2023-12-12T02:42:02.463Z,68.01
2023-12-12T02:44:29.772Z,68.16
2023-12-12T02:46:57.109Z,68.68
2023-12-12T02:49:24.577Z,68.43
2023-12-12T02:51:52.211Z,68.67
2023-12-12T02:54:19.594Z,68.78
2023-12-12T02:56:47.107Z,68.96
2023-12-12T02:59:14.438Z,68.48
2023-12-12T03:01:41.929Z,68.44
2023-12-12T03:04:09.538Z,68.08
2023-12-12T03:06:36.914Z,67.11
2023-12-12T03:09:04.363Z,65.05
2023-12-12T03:11:32.127Z,60.68
2023-12-12T03:13:59.540Z,59.01
2023-12-12T03:16:27.145Z,57.33
2023-12-12T03:18:54.762Z,56.22
2023-12-12T03:21:22.228Z,56.24
2023-12-12T03:23:49.606Z,57.17
2023-12-12T03:26:16.926Z,57.65
2023-12-12T03:28:44.491Z,58.35
2023-12-12T03:31:11.881Z,58.38
2023-12-12T03:33:39.528Z,58.30
2023-12-12T03:36:10.669Z,57.40
2023-12-12T03:38:37.985Z,56.99
2023-12-12T03:41:05.406Z,56.47
2023-12-12T03:43:32.757Z,56.21
2023-12-12T03:46:00.093Z,56.01
2023-12-12T03:48:27.701Z,55.20
2023-12-12T03:50:55.766Z,55.50
2023-12-12T03:53:24.438Z,56.06
2023-12-12T03:55:51.678Z,56.78
2023-12-12T03:58:19.090Z,59.80
2023-12-12T04:00:46.517Z,58.54
2023-12-12T04:03:13.914Z,57.48
2023-12-12T04:05:41.730Z,56.05
2023-12-12T04:08:09.939Z,55.40
2023-12-12T04:10:37.442Z,54.98
2023-12-12T04:13:04.999Z,54.55
2023-12-12T04:15:32.712Z,54.73
2023-12-12T04:18:00.128Z,55.10
2023-12-12T04:20:27.691Z,55.28
2023-12-12T04:22:55.050Z,55.60
2023-12-12T04:25:22.753Z,55.78
2023-12-12T04:27:50.464Z,56.21
2023-12-12T04:30:18.136Z,56.95
2023-12-12T04:32:45.477Z,57.18
2023-12-12T04:35:12.884Z,57.71
2023-12-12T04:37:40.362Z,58.43
2023-12-12T04:40:08.712Z,58.88
2023-12-12T04:42:37.492Z,59.19
2023-12-12T04:45:05.413Z,60.36
2023-12-12T04:47:33.274Z,61.54
2023-12-12T04:50:01.112Z,61.62
2023-12-12T04:52:29.415Z,62.46
2023-12-12T04:54:56.772Z,62.95
2023-12-12T04:57:24.240Z,63.77
2023-12-12T04:59:51.595Z,64.95
2023-12-12T05:02:18.983Z,67.93
2023-12-12T05:04:46.211Z,68.78
2023-12-12T05:07:13.815Z,68.95
2023-12-12T05:09:41.718Z,70.44
2023-12-12T05:12:09.691Z,70.98
2023-12-12T05:14:36.933Z,70.33
2023-12-12T05:17:10.279Z,70.37
2023-12-12T05:19:38.783Z,70.05
2023-12-12T05:22:06.410Z,70.28
2023-12-12T05:24:34.471Z,70.46
2023-12-12T05:27:01.703Z,70.71
2023-12-12T05:29:29.661Z,71.71
2023-12-12T05:31:57.055Z,75.03
2023-12-12T05:34:24.550Z,76.38
2023-12-12T05:36:52.054Z,77.10
2023-12-12T05:39:19.364Z,77.46
2023-12-12T05:41:49.911Z,78.11
2023-12-12T05:44:17.593Z,79.28
2023-12-12T05:46:45.051Z,79.54
2023-12-12T05:49:12.438Z,79.49
2023-12-12T05:51:41.348Z,79.18
2023-12-12T05:54:13.703Z,78.35
2023-12-12T05:56:44.723Z,77.70
2023-12-12T05:59:15.908Z,77.29
2023-12-12T06:01:43.627Z,77.26
2023-12-12T06:04:14.822Z,77.08
2023-12-12T06:06:44.183Z,76.97
2023-12-12T06:09:13.162Z,75.92
2023-12-12T06:11:43.335Z,75.39
2023-12-12T06:14:11.333Z,75.16
2023-12-12T06:16:39.721Z,75.41
2023-12-12T06:19:07.556Z,74.61
2023-12-12T06:21:35.477Z,74.42
2023-12-12T06:24:04.067Z,72.69
2023-12-12T06:26:32.462Z,71.09
2023-12-12T06:29:00.102Z,70.37
2023-12-12T06:31:27.838Z,70.48
2023-12-12T06:33:55.487Z,70.42
2023-12-12T06:36:23.621Z,70.53
2023-12-12T06:38:50.867Z,70.04
2023-12-12T06:41:18.484Z,69.01
2023-12-12T06:43:45.807Z,68.33
2023-12-12T06:46:13.272Z,68.04
2023-12-12T06:48:40.631Z,67.47
2023-12-12T06:51:08.201Z,67.21
2023-12-12T06:53:35.449Z,66.71
2023-12-12T06:56:02.934Z,66.42
2023-12-12T06:58:30.798Z,66.51
2023-12-12T07:00:58.921Z,66.45
2023-12-12T07:03:26.301Z,66.32
2023-12-12T07:05:54.086Z,66.28
2023-12-12T07:08:23.434Z,66.37
2023-12-12T07:10:51.063Z,66.00
2023-12-12T07:13:19.675Z,65.20
2023-12-12T07:15:47.003Z,65.15
2023-12-12T07:18:15.792Z,64.60
2023-12-12T07:20:43.253Z,63.77
2023-12-12T07:23:10.662Z,63.51
2023-12-12T07:25:39.241Z,63.50
2023-12-12T07:28:06.863Z,63.56
2023-12-12T07:30:34.191Z,62.89
2023-12-12T07:33:01.664Z,62.49
2023-12-12T07:35:29.358Z,63.64
2023-12-12T07:37:57.992Z,64.89
2023-12-12T07:40:26.806Z,67.62
2023-12-12T07:42:54.306Z,68.93
2023-12-12T07:45:21.622Z,70.09
2023-12-12T07:47:49.224Z,71.20
2023-12-12T07:50:20.757Z,72.85
2023-12-12T07:52:48.966Z,73.67
2023-12-12T07:55:16.479Z,74.23
2023-12-12T07:57:45.344Z,75.11
2023-12-12T08:00:13.979Z,74.78
2023-12-12T08:02:41.931Z,74.66
2023-12-12T08:05:09.403Z,74.90
2023-12-12T08:07:37.321Z,72.95
2023-12-12T08:10:06.856Z,70.58
2023-12-12T08:12:35.561Z,68.64
2023-12-12T08:15:05.196Z,68.46
2023-12-12T08:17:33.079Z,67.41
2023-12-12T08:20:00.701Z,65.05
2023-12-12T08:22:28.362Z,64.79
2023-12-12T08:24:56.254Z,64.60
2023-12-12T08:27:23.821Z,64.18
2023-12-12T08:29:51.088Z,67.28
2023-12-12T08:32:18.528Z,69.08
2023-12-12T08:34:46.292Z,69.35
2023-12-12T08:37:14.689Z,70.08
2023-12-12T08:39:43.132Z,69.81
2023-12-12T08:42:11.772Z,69.68
2023-12-12T08:44:41.897Z,69.47
2023-12-12T08:47:09.236Z,69.09
2023-12-12T08:49:39.149Z,68.99
2023-12-12T08:52:09.712Z,68.60
2023-12-12T08:54:37.487Z,69.03
2023-12-12T08:57:07.576Z,68.63
2023-12-12T08:59:35.442Z,68.59
2023-12-12T09:02:02.914Z,68.46
2023-12-12T09:04:30.276Z,67.98
2023-12-12T09:06:57.664Z,68.15
2023-12-12T09:09:26.142Z,68.55
2023-12-12T09:11:53.507Z,68.75
2023-12-12T09:14:21.327Z,68.39
2023-12-12T09:16:48.705Z,68.64
2023-12-12T09:19:18.239Z,68.40
2023-12-12T09:21:45.721Z,68.58
2023-12-12T09:24:14.522Z,68.46
2023-12-12T09:26:42.065Z,68.87
2023-12-12T09:29:09.400Z,68.83
2023-12-12T09:31:37.044Z,68.89
2023-12-12T09:34:04.938Z,68.57
2023-12-12T09:36:33.206Z,68.01
2023-12-12T09:39:00.621Z,68.03
2023-12-12T09:41:27.982Z,68.25
2023-12-12T09:43:55.247Z,67.88
2023-12-12T09:46:24.567Z,66.85
2023-12-12T09:48:53.698Z,66.68
2023-12-12T09:51:22.873Z,66.02
2023-12-12T09:53:51.217Z,65.53
2023-12-12T09:56:19.368Z,65.54
2023-12-12T09:58:49.320Z,65.37
2023-12-12T10:01:17.453Z,65.58
2023-12-12T10:03:46.200Z,65.72
2023-12-12T10:06:14.391Z,65.74
2023-12-12T10:08:42.331Z,65.71
2023-12-12T10:11:11.469Z,66.22
2023-12-12T10:13:52.583Z,66.07
2023-12-12T10:16:20.316Z,66.26
2023-12-12T10:18:49.260Z,65.19
2023-12-12T10:21:24.347Z,65.00
2023-12-12T10:23:53.920Z,64.02
2023-12-12T10:26:34.401Z,64.12
2023-12-12T10:29:02.386Z,63.67
2023-12-12T10:31:30.313Z,63.47
2023-12-12T10:33:59.025Z,63.74
2023-12-12T10:36:26.852Z,63.63
2023-12-12T10:38:55.177Z,63.16
2023-12-12T10:41:25.995Z,63.31
2023-12-12T10:43:55.117Z,63.64
2023-12-12T10:46:24.891Z,63.72
2023-12-12T10:48:54.897Z,63.48
2023-12-12T10:51:24.775Z,63.44
2023-12-12T10:53:56.259Z,62.85
2023-12-12T10:56:24.617Z,62.56
2023-12-12T10:58:52.871Z,61.74
2023-12-12T11:01:21.015Z,61.35
2023-12-12T11:03:52.286Z,60.49
2023-12-12T11:06:20.726Z,59.79
2023-12-12T11:08:48.401Z,59.13
2023-12-12T11:11:22.575Z,59.58
2023-12-12T11:13:52.833Z,59.12
2023-12-12T11:16:20.771Z,58.84
2023-12-12T11:18:49.493Z,58.76
2023-12-12T11:21:43.161Z,58.00
2023-12-12T11:24:10.543Z,57.16
2023-12-12T11:26:38.395Z,56.94
2023-12-12T11:29:11.710Z,57.85
2023-12-12T11:31:57.154Z,57.46
2023-12-12T11:34:25.081Z,57.29
2023-12-12T11:36:59.049Z,57.53
2023-12-12T11:39:31.563Z,57.05
2023-12-12T11:42:00.577Z,57.20
2023-12-12T11:44:44.399Z,56.93
2023-12-12T11:47:16.561Z,56.40
2023-12-12T11:49:45.599Z,56.47
2023-12-12T11:52:39.028Z,55.91
2023-12-12T11:55:18.919Z,55.63
2023-12-12T11:57:46.822Z,55.02
2023-12-12T12:00:15.689Z,54.86
2023-12-12T12:02:43.287Z,54.85
2023-12-12T12:05:11.375Z,54.80
2023-12-12T12:07:41.515Z,55.02
2023-12-12T12:10:12.170Z,55.28
2023-12-12T12:12:39.547Z,55.46
2023-12-12T12:15:07.850Z,54.76
2023-12-12T12:17:36.448Z,54.59
2023-12-12T12:20:04.976Z,54.31
2023-12-12T12:22:32.995Z,54.17
2023-12-12T12:25:00.603Z,54.44
2023-12-12T12:27:28.194Z,54.88
2023-12-12T12:30:05.105Z,56.10
2023-12-12T12:32:34.162Z,58.71
2023-12-12T12:35:09.562Z,58.51
2023-12-12T12:37:38.494Z,58.34
2023-12-12T12:40:07.839Z,59.55
2023-12-12T12:42:39.846Z,61.98
2023-12-12T12:45:09.011Z,59.96
2023-12-12T12:47:36.588Z,58.69
2023-12-12T12:50:04.600Z,56.87
2023-12-12T12:52:33.245Z,57.78
2023-12-12T12:55:01.187Z,57.47
2023-12-12T12:57:28.479Z,56.58
2023-12-12T12:59:55.860Z,57.15
2023-12-12T13:02:23.232Z,57.67
2023-12-12T13:04:51.018Z,57.99
2023-12-12T13:07:18.367Z,57.22
2023-12-12T13:09:45.832Z,57.63
2023-12-12T13:12:13.122Z,57.76
2023-12-12T13:14:41.931Z,57.52
2023-12-12T13:17:10.077Z,57.49
2023-12-12T13:19:37.661Z,57.54
2023-12-12T13:22:05.365Z,57.17
2023-12-12T13:24:32.984Z,56.46
2023-12-12T13:27:00.187Z,55.94
2023-12-12T13:29:27.538Z,56.38
2023-12-12T13:31:54.796Z,56.27
2023-12-12T13:34:22.322Z,55.90
2023-12-12T13:36:49.588Z,56.43
2023-12-12T13:39:19.414Z,56.36
2023-12-12T13:41:50.038Z,56.41
2023-12-12T13:44:18.477Z,56.72
2023-12-12T13:46:46.212Z,57.32
2023-12-12T13:49:13.968Z,57.02
2023-12-12T13:51:47.114Z,56.97
2023-12-12T13:54:15.514Z,57.36
2023-12-12T13:56:44.519Z,57.96
2023-12-12T13:59:12.400Z,58.38
2023-12-12T14:01:39.935Z,58.17
2023-12-12T14:04:07.663Z,58.57
2023-12-12T14:06:35.071Z,58.43
2023-12-12T14:09:02.500Z,59.18
2023-12-12T14:11:30.406Z,59.86
2023-12-12T14:13:57.948Z,59.73
2023-12-12T14:16:29.034Z,60.52
2023-12-12T14:18:58.153Z,60.78
2023-12-12T14:21:25.403Z,61.00
2023-12-12T14:23:52.678Z,61.52
2023-12-12T14:26:23.499Z,61.56
2023-12-12T14:28:51.546Z,62.38
2023-12-12T14:31:19.719Z,62.67
2023-12-12T14:33:47.576Z,63.03
2023-12-12T14:36:15.873Z,63.16
2023-12-12T14:38:47.059Z,63.41
2023-12-12T14:41:15.391Z,63.90
2023-12-12T14:43:50.282Z,63.81
2023-12-12T14:46:18.299Z,64.16
2023-12-12T14:48:45.544Z,64.44
2023-12-12T14:51:14.930Z,64.73
2023-12-12T14:53:42.885Z,64.55
2023-12-12T14:56:11.687Z,64.95
2023-12-12T14:58:39.193Z,65.12
2023-12-12T15:01:06.936Z,64.44
2023-12-12T15:03:34.788Z,65.22
2023-12-12T15:06:04.109Z,65.64
2023-12-12T15:08:31.777Z,66.51
2023-12-12T15:14:03.001Z,66.42
2023-12-12T15:16:30.525Z,66.96
2023-12-12T15:18:58.026Z,68.14
2023-12-12T15:21:26.012Z,71.62
2023-12-12T15:23:53.277Z,73.82
2023-12-12T15:26:20.729Z,75.15
2023-12-12T15:28:48.046Z,76.96
2023-12-12T15:31:15.571Z,78.82
2023-12-12T15:33:43.047Z,78.72
2023-12-12T15:36:10.797Z,80.65
2023-12-12T15:38:38.550Z,81.61
2023-12-12T15:41:06.057Z,81.93
2023-12-12T15:43:35.386Z,81.92
2023-12-12T15:46:03.131Z,81.76
2023-12-12T15:48:30.705Z,81.63
2023-12-12T15:50:58.106Z,81.76
2023-12-12T15:53:25.854Z,83.04
2023-12-12T15:55:53.008Z,84.06
2023-12-12T15:58:21.334Z,83.21
2023-12-12T16:00:48.798Z,80.99
2023-12-12T16:03:16.101Z,82.40
2023-12-12T16:05:44.382Z,82.65
2023-12-12T16:08:13.668Z,82.61
2023-12-12T16:10:42.044Z,82.64
2023-12-12T16:13:11.782Z,82.43
2023-12-12T16:15:39.248Z,81.61
2023-12-12T16:18:06.447Z,81.42
2023-12-12T16:20:33.807Z,81.47
2023-12-12T16:23:01.337Z,82.46
2023-12-12T16:25:28.683Z,82.77
2023-12-12T16:27:57.765Z,83.31
2023-12-12T16:30:28.739Z,83.63
2023-12-12T16:33:01.201Z,83.56
2023-12-12T16:35:28.805Z,83.77
2023-12-12T16:37:56.229Z,84.18
2023-12-12T16:40:23.596Z,84.53
2023-12-12T16:42:50.969Z,84.69
2023-12-12T16:45:18.258Z,85.20
2023-12-12T16:47:45.750Z,85.63
2023-12-12T16:50:13.637Z,86.47
2023-12-12T16:52:40.846Z,87.26
2023-12-12T16:55:08.502Z,87.56
2023-12-12T16:57:37.759Z,87.83
2023-12-12T17:00:12.158Z,88.04
2023-12-12T17:02:39.819Z,88.60
2023-12-12T17:05:07.490Z,88.81
2023-12-12T17:07:35.331Z,89.28
2023-12-12T17:10:09.198Z,89.32
2023-12-12T17:12:40.332Z,89.27
2023-12-12T17:15:09.467Z,89.60
2023-12-12T17:17:36.903Z,89.56
2023-12-12T17:20:04.740Z,89.51
2023-12-12T17:22:32.252Z,89.21
2023-12-12T17:24:59.628Z,88.40
2023-12-12T17:27:27.249Z,87.60
2023-12-12T17:29:54.906Z,87.44
2023-12-12T17:32:22.464Z,87.07
2023-12-12T17:34:50.661Z,86.88
2023-12-12T17:37:18.130Z,86.51
2023-12-12T17:39:45.322Z,86.22
2023-12-12T17:42:12.692Z,86.22
2023-12-12T17:44:40.662Z,86.21
2023-12-12T17:47:08.015Z,86.19
2023-12-12T17:49:37.824Z,86.23
2023-12-12T17:52:05.725Z,85.90
2023-12-12T17:54:32.934Z,86.06
2023-12-12T17:57:00.345Z,86.07
2023-12-12T17:59:27.557Z,85.76
2023-12-12T18:01:55.627Z,86.09
2023-12-12T18:04:23.016Z,85.74
2023-12-12T18:06:50.378Z,85.95
2023-12-12T18:09:20.869Z,85.71
2023-12-12T18:11:48.244Z,85.98
2023-12-12T18:14:15.452Z,85.81
2023-12-12T18:16:42.874Z,85.58
2023-12-12T18:19:10.499Z,85.68
2023-12-12T18:21:38.783Z,85.90
2023-12-12T18:24:06.499Z,85.86
2023-12-12T18:26:33.854Z,85.60
2023-12-12T18:29:05.225Z,85.80
2023-12-12T18:31:33.395Z,85.42
2023-12-12T18:34:01.113Z,85.46
2023-12-12T18:36:28.981Z,85.71
2023-12-12T18:38:56.315Z,85.45
2023-12-12T18:41:24.322Z,85.80
2023-12-12T18:43:51.775Z,85.86
2023-12-12T18:46:19.416Z,85.83
2023-12-12T18:48:47.094Z,86.04
2023-12-12T18:51:14.476Z,85.85
2023-12-12T18:53:41.851Z,86.09
2023-12-12T18:56:10.507Z,86.17
2023-12-12T18:58:38.526Z,86.20
2023-12-12T19:01:06.080Z,85.97
2023-12-12T19:03:33.534Z,86.50
2023-12-12T19:06:00.892Z,86.25
2023-12-12T19:08:28.960Z,86.29
2023-12-12T19:10:56.357Z,86.27
2023-12-12T19:13:24.944Z,86.31
2023-12-12T19:15:53.592Z,86.02
2023-12-12T19:18:21.647Z,86.02
2023-12-12T19:20:49.151Z,86.05
2023-12-12T19:23:17.008Z,85.96
2023-12-12T19:25:44.522Z,85.94
2023-12-12T19:28:11.960Z,86.12
2023-12-12T19:30:39.400Z,85.89
2023-12-12T19:33:09.787Z,86.11
2023-12-12T19:35:39.054Z,85.98
2023-12-12T19:38:07.573Z,86.21
2023-12-12T19:40:37.712Z,86.04
2023-12-12T19:43:05.581Z,86.41
2023-12-12T19:45:32.949Z,86.30
2023-12-12T19:48:00.430Z,86.52
2023-12-12T19:50:28.098Z,86.68
2023-12-12T19:52:55.468Z,86.88
2023-12-12T19:55:24.526Z,86.94
2023-12-12T19:57:51.867Z,87.15
2023-12-12T20:00:19.659Z,87.75
2023-12-12T20:02:46.966Z,88.14
2023-12-12T20:05:14.372Z,88.71
2023-12-12T20:07:42.001Z,88.95
2023-12-12T20:10:14.329Z,89.19
2023-12-12T20:12:46.816Z,89.53
2023-12-12T20:15:16.347Z,90.25
2023-12-12T20:17:44.223Z,90.60
2023-12-12T20:20:13.219Z,91.02
2023-12-12T20:22:40.767Z,91.08
2023-12-12T20:25:08.549Z,91.35
2023-12-12T20:27:38.109Z,91.72
2023-12-12T20:30:07.161Z,92.30
2023-12-12T20:32:34.569Z,93.52
2023-12-12T20:35:04.590Z,94.04
2023-12-12T20:37:32.500Z,94.28
2023-12-12T20:39:59.985Z,94.43
2023-12-12T20:42:28.063Z,94.70
2023-12-12T20:44:56.345Z,95.10
2023-12-12T20:47:23.809Z,95.60
2023-12-12T20:49:51.498Z,96.57
2023-12-12T20:52:19.071Z,97.33
2023-12-12T20:54:46.747Z,98.01
2023-12-12T20:57:17.363Z,98.41
2023-12-12T20:59:44.708Z,98.96
2023-12-12T21:02:12.131Z,99.33
2023-12-12T21:04:42.559Z,99.91
2023-12-12T21:07:11.184Z,100.00
2023-12-12T21:09:38.537Z,100.00
2023-12-12T21:12:06.035Z,100.00
2023-12-12T21:14:33.414Z,100.00
2023-12-12T21:17:03.487Z,100.00
2023-12-12T21:19:31.381Z,100.00
2023-12-12T21:21:58.751Z,100.00
2023-12-12T21:24:26.178Z,100.00
2023-12-12T21:26:53.600Z,100.00
2023-12-12T21:29:21.012Z,100.00
2023-12-12T21:31:48.556Z,100.00
2023-12-12T21:34:16.122Z,100.00
2023-12-12T21:36:43.511Z,100.00
2023-12-12T21:39:10.913Z,100.00
2023-12-12T21:41:41.745Z,100.00
2023-12-12T21:44:09.180Z,100.00
2023-12-12T21:46:36.744Z,100.00
2023-12-12T21:49:04.298Z,100.00
2023-12-12T21:51:31.639Z,100.00
2023-12-12T21:53:58.986Z,100.00
2023-12-12T21:56:26.310Z,100.00
2023-12-12T21:58:57.156Z,100.00
2023-12-12T22:01:25.836Z,100.00
2023-12-12T22:03:53.249Z,100.00
2023-12-12T22:06:20.505Z,100.00
2023-12-12T22:08:47.864Z,100.00
2023-12-12T22:11:16.500Z,100.00
2023-12-12T22:13:44.746Z,100.00
2023-12-12T22:16:26.150Z,100.00
2023-12-12T22:18:57.600Z,100.00
2023-12-12T22:21:28.403Z,100.00
2023-12-12T22:23:56.441Z,100.00
2023-12-12T22:26:24.203Z,100.00
2023-12-12T22:28:52.700Z,100.00
2023-12-12T22:31:19.995Z,100.00
2023-12-12T22:33:47.410Z,100.00
2023-12-12T22:36:21.004Z,100.00
2023-12-12T22:38:49.982Z,100.00
2023-12-12T22:41:21.493Z,100.00
2023-12-12T22:43:49.891Z,100.00
2023-12-12T22:46:21.148Z,100.00
2023-12-12T22:48:49.880Z,100.00
2023-12-12T22:51:20.060Z,100.00
2023-12-12T22:53:47.511Z,100.00
2023-12-12T22:56:15.485Z,100.00
2023-12-12T22:58:43.301Z,100.00
2023-12-12T23:01:14.217Z,100.00
2023-12-12T23:03:41.529Z,100.00
2023-12-12T23:06:09.261Z,100.00
2023-12-12T23:08:36.786Z,100.00
2023-12-12T23:11:04.726Z,100.00
2023-12-12T23:13:32.005Z,100.00
2023-12-12T23:15:59.584Z,100.00
2023-12-12T23:18:26.979Z,100.00
2023-12-12T23:20:56.499Z,100.00
2023-12-12T23:23:24.477Z,100.00
2023-12-12T23:25:51.884Z,100.00
2023-12-12T23:28:19.394Z,100.00
2023-12-12T23:31:00.516Z,100.00
2023-12-12T23:33:35.083Z,100.00
2023-12-12T23:36:02.517Z,100.00
2023-12-12T23:38:29.923Z,100.00
2023-12-12T23:40:57.300Z,100.00
2023-12-12T23:43:24.688Z,100.00
2023-12-12T23:45:52.157Z,100.00
2023-12-12T23:48:19.755Z,100.00
2023-12-12T23:50:47.189Z,100.00
2023-12-12T23:53:14.447Z,100.00
2023-12-12T23:55:42.415Z,100.00
2023-12-12T23:58:09.817Z,100.00
